Time;durP1;ratioP1;P1;durP2;ratioP2;P2;SDS_P1;SDS_P2;PMS_P1;PMS_P2;Temp;Humidity;BMP_temperature;BMP_pressure;BME280_temperature;BME280_humidity;BME280_pressure;Samples;Min_cycle;Max_cycle;Signal;HPM_P1;HPM_P2
2021/10/06 00:02:45;;;;;;;7.07;5.37;;;;;;;12.55;100.00;100516.66;21079966;28;20227;-65
2021/10/06 00:12:48;;;;;;;9.93;6.03;;;;;;;12.50;100.00;100497.34;21079303;28;20743;-61
2021/10/06 00:22:54;;;;;;;7.23;5.33;;;;;;;12.46;100.00;100497.66;21078539;28;20234;-65
2021/10/06 00:32:56;;;;;;;8.70;6.10;;;;;;;12.57;100.00;100506.66;21077661;28;20229;-66
2021/10/06 00:43:00;;;;;;;8.27;5.33;;;;;;;12.82;100.00;100515.66;21076748;28;20229;-65
2021/10/06 00:53:02;;;;;;;6.33;5.23;;;;;;;12.96;100.00;100529.78;21075792;28;20304;-64
2021/10/06 01:03:06;;;;;;;7.03;5.23;;;;;;;13.06;100.00;100534.50;21075385;28;20711;-64
2021/10/06 01:13:08;;;;;;;8.83;6.10;;;;;;;13.09;100.00;100513.69;21073705;28;20600;-64
2021/10/06 01:23:14;;;;;;;6.70;5.50;;;;;;;13.13;100.00;100531.28;21073723;28;20227;-64
2021/10/06 01:33:16;;;;;;;8.10;4.90;;;;;;;13.16;100.00;100524.88;21073012;28;20793;-65
2021/10/06 01:43:20;;;;;;;7.40;5.43;;;;;;;13.14;100.00;100522.31;21072551;28;20226;-65
2021/10/06 01:53:22;;;;;;;7.43;4.93;;;;;;;13.15;100.00;100523.19;21072115;28;20243;-65
2021/10/06 02:03:26;;;;;;;6.60;5.37;;;;;;;13.12;100.00;100518.84;21071356;28;20227;-65
2021/10/06 02:13:28;;;;;;;5.83;5.20;;;;;;;13.08;100.00;100520.03;21070435;28;20307;-62
2021/10/06 02:23:32;;;;;;;8.33;5.80;;;;;;;13.11;100.00;100527.84;21073568;28;20226;-66
2021/10/06 02:33:34;;;;;;;7.93;5.33;;;;;;;13.18;100.00;100529.16;21087210;28;20227;-65
2021/10/06 02:43:38;;;;;;;8.87;5.63;;;;;;;13.23;100.00;100552.94;21086644;28;20216;-65
2021/10/06 02:53:40;;;;;;;6.10;5.00;;;;;;;13.28;100.00;100553.50;21085714;28;20260;-65
2021/10/06 03:03:43;;;;;;;8.80;5.57;;;;;;;13.28;100.00;100518.66;21085180;28;20248;-65
2021/10/06 03:13:46;;;;;;;5.77;5.17;;;;;;;13.27;100.00;100549.94;21075470;28;20226;-65
2021/10/06 03:23:49;;;;;;;8.10;5.27;;;;;;;13.22;100.00;100551.22;21083185;28;20696;-65
2021/10/06 03:33:52;;;;;;;8.43;5.33;;;;;;;13.15;100.00;100556.19;21081858;28;20230;-66
2021/10/06 03:43:55;;;;;;;5.97;5.40;;;;;;;12.98;100.00;100567.19;21081794;28;20229;-65
2021/10/06 03:53:57;;;;;;;7.33;5.63;;;;;;;12.88;100.00;100574.16;21080957;28;20230;-66
2021/10/06 04:04:01;;;;;;;5.30;4.80;;;;;;;12.82;100.00;100585.28;21080346;28;20761;-66
2021/10/06 04:14:03;;;;;;;5.83;5.07;;;;;;;12.65;100.00;100574.91;21079237;28;20252;-64
2021/10/06 04:24:07;;;;;;;5.80;4.87;;;;;;;12.61;100.00;100591.16;21078327;28;20261;-66
2021/10/06 04:34:09;;;;;;;7.93;5.53;;;;;;;12.76;100.00;100596.44;21078052;28;20235;-67
2021/10/06 04:44:13;;;;;;;5.63;5.03;;;;;;;12.91;100.00;100612.31;21076320;28;20602;-63
2021/10/06 04:54:17;;;;;;;7.80;4.80;;;;;;;13.02;100.00;100598.16;21074820;28;20848;-64
2021/10/06 05:04:21;;;;;;;7.07;5.37;;;;;;;13.02;100.00;100614.25;21067024;28;20298;-65
2021/10/06 05:14:23;;;;;;;6.03;4.90;;;;;;;13.01;100.00;100655.41;21067226;28;20647;-61
2021/10/06 05:24:27;;;;;;;6.40;5.00;;;;;;;13.07;100.00;100671.03;21071746;28;20325;-61
2021/10/06 05:34:29;;;;;;;7.27;5.63;;;;;;;13.02;100.00;100659.78;21071675;28;20703;-61
2021/10/06 05:44:33;;;;;;;7.80;6.63;;;;;;;12.85;100.00;100692.22;21070284;28;20324;-61
2021/10/06 05:54:35;;;;;;;6.77;6.20;;;;;;;12.66;100.00;100707.81;21071384;28;20230;-62
2021/10/06 06:04:39;;;;;;;9.27;7.00;;;;;;;12.56;100.00;100716.44;21070531;28;20238;-61
2021/10/06 06:14:43;;;;;;;6.73;6.17;;;;;;;12.64;100.00;100726.66;21070351;28;20234;-64
2021/10/06 06:24:46;;;;;;;8.27;6.30;;;;;;;12.70;100.00;100738.75;21070137;28;20660;-60
2021/10/06 06:34:49;;;;;;;8.10;5.83;;;;;;;12.89;100.00;100736.59;21069624;28;20247;-64
2021/10/06 06:44:52;;;;;;;6.73;5.90;;;;;;;12.99;100.00;100748.41;21069615;28;20292;-62
2021/10/06 06:54:54;;;;;;;6.30;5.70;;;;;;;13.13;100.00;100761.72;21069061;28;20593;-60
2021/10/06 07:04:58;;;;;;;6.13;5.63;;;;;;;13.48;100.00;100766.53;21068662;28;20225;-61
2021/10/06 07:15:00;;;;;;;5.83;5.13;;;;;;;14.04;100.00;100779.47;21078731;28;20619;-62
2021/10/06 07:25:05;;;;;;;8.00;5.70;;;;;;;14.76;100.00;100785.88;21083114;28;20272;-61
2021/10/06 07:35:10;;;;;;;7.40;6.07;;;;;;;15.43;100.00;100791.53;21082877;28;20256;-61
2021/10/06 07:45:13;;;;;;;6.67;5.97;;;;;;;15.61;100.00;100804.56;21081829;28;20234;-60
2021/10/06 07:55:17;;;;;;;5.93;5.50;;;;;;;16.05;100.00;100804.63;21080763;28;20277;-61
2021/10/06 08:05:21;;;;;;;6.70;5.33;;;;;;;16.65;100.00;100814.19;21080020;28;20231;-62
2021/10/06 08:15:23;;;;;;;9.53;6.10;;;;;;;16.44;100.00;100830.19;21079396;28;20309;-64
2021/10/06 08:25:27;;;;;;;6.43;5.73;;;;;;;16.28;100.00;100810.88;21077881;28;20237;-62
2021/10/06 08:35:30;;;;;;;5.93;5.10;;;;;;;16.89;100.00;100827.47;21077688;28;20234;-60
2021/10/06 08:45:35;;;;;;;6.53;5.80;;;;;;;16.74;100.00;100836.81;21076651;28;20227;-60
2021/10/06 08:55:38;;;;;;;6.10;5.60;;;;;;;16.66;100.00;100828.50;21076180;28;20256;-61
2021/10/06 09:05:46;;;;;;;5.50;4.80;;;;;;;17.02;100.00;100833.56;21075269;28;20314;-61
2021/10/06 09:15:52;;;;;;;6.63;5.13;;;;;;;17.45;100.00;100833.50;21074612;28;20682;-60
2021/10/06 09:26:01;;;;;;;6.67;4.60;;;;;;;18.11;100.00;100842.25;21073993;28;20230;-62
2021/10/06 09:36:09;;;;;;;6.50;4.70;;;;;;;17.78;100.00;100837.03;21072394;28;20272;-61
2021/10/06 09:46:13;;;;;;;6.30;5.20;;;;;;;17.90;100.00;100842.25;21072420;28;20284;-60
2021/10/06 09:56:16;;;;;;;6.23;5.07;;;;;;;18.12;100.00;100857.41;21071843;28;20230;-61
2021/10/06 10:06:20;;;;;;;5.13;4.70;;;;;;;18.18;100.00;100847.94;21070949;28;20238;-61
2021/10/06 10:16:22;;;;;;;6.27;4.60;;;;;;;18.14;100.00;100855.44;21070961;28;20235;-61
2021/10/06 10:26:26;;;;;;;8.73;5.20;;;;;;;18.90;100.00;100859.50;21070436;28;20297;-61
2021/10/06 10:36:48;;;;;;;6.33;5.07;;;;;;;19.36;89.54;100860.69;21069825;28;20222;-62
2021/10/06 10:46:57;;;;;;;4.97;4.00;;;;;;;19.28;98.04;100858.69;21076898;28;20704;-64
2021/10/06 10:57:05;;;;;;;5.67;5.17;;;;;;;18.68;88.46;100875.94;21084075;28;20236;-60
2021/10/06 11:07:21;;;;;;;5.33;4.80;;;;;;;18.00;97.64;100890.91;21084364;28;20243;-60
2021/10/06 11:17:23;;;;;;;8.13;5.00;;;;;;;18.92;100.00;100889.97;21082442;28;20271;-60
2021/10/06 11:27:28;;;;;;;9.53;5.70;;;;;;;19.29;100.00;100887.47;21082923;28;20276;-62
2021/10/06 11:37:34;;;;;;;5.37;4.87;;;;;;;18.96;100.00;100896.78;21082534;28;20233;-62
2021/10/06 11:47:38;;;;;;;5.27;4.77;;;;;;;19.00;100.00;100884.69;21081454;28;20221;-63
2021/10/06 11:57:41;;;;;;;5.47;4.90;;;;;;;18.86;100.00;100901.31;21079911;28;20238;-63
2021/10/06 12:07:44;;;;;;;6.33;5.17;;;;;;;18.98;100.00;100911.03;21079831;28;20222;-61
2021/10/06 12:17:48;;;;;;;8.17;5.00;;;;;;;19.31;100.00;100890.03;21079356;28;20652;-60
2021/10/06 12:27:53;;;;;;;12.33;5.63;;;;;;;19.87;100.00;100903.75;21078497;28;20707;-60
2021/10/06 12:37:57;;;;;;;10.33;5.23;;;;;;;20.39;98.95;100915.94;21077728;28;20222;-65
2021/10/06 12:48:01;;;;;;;5.67;5.20;;;;;;;20.77;95.16;100912.22;21076735;28;20226;-61
2021/10/06 12:58:08;;;;;;;6.20;5.27;;;;;;;20.49;89.22;100914.06;21075218;28;20229;-62
2021/10/06 13:08:17;;;;;;;6.13;5.30;;;;;;;20.29;84.65;100920.47;21074511;28;20241;-60
2021/10/06 13:18:19;;;;;;;5.90;5.30;;;;;;;19.74;99.39;100938.38;21074658;28;20225;-60
2021/10/06 13:28:22;;;;;;;8.93;6.63;;;;;;;19.18;93.43;100922.78;21073732;28;20233;-60
2021/10/06 13:38:25;;;;;;;8.10;6.33;;;;;;;18.85;88.81;100918.53;21072543;28;20240;-60
2021/10/06 13:48:29;;;;;;;5.77;5.27;;;;;;;18.70;99.14;100944.25;21072462;28;20229;-61
2021/10/06 13:58:31;;;;;;;8.00;6.40;;;;;;;18.52;94.91;100954.78;21053093;28;20234;-60
2021/10/06 14:08:36;;;;;;;6.77;6.07;;;;;;;18.50;100.00;100970.28;21071025;28;20597;-65
2021/10/06 14:18:38;;;;;;;6.77;5.30;;;;;;;18.60;99.35;100965.81;21070171;28;20762;-60
2021/10/06 14:28:42;;;;;;;7.87;5.07;;;;;;;18.26;91.90;100964.28;21001335;28;20231;-61
2021/10/06 14:38:44;;;;;;;6.33;5.20;;;;;;;17.66;90.29;100973.06;20978293;28;20314;-61
2021/10/06 14:48:48;;;;;;;5.67;5.07;;;;;;;17.12;95.15;100957.72;20885303;28;20353;-64
2021/10/06 14:58:50;;;;;;;6.23;5.10;;;;;;;17.04;100.00;100997.91;20839631;28;20249;-62
2021/10/06 15:08:54;;;;;;;6.80;4.53;;;;;;;16.80;100.00;101006.13;20834043;28;21346;-62
2021/10/06 15:18:57;;;;;;;6.30;4.77;;;;;;;16.53;100.00;101003.75;20973736;28;20249;-61
2021/10/06 15:29:02;;;;;;;5.70;4.70;;;;;;;16.29;100.00;101000.28;20977708;28;20238;-62
2021/10/06 15:39:05;;;;;;;6.60;4.70;;;;;;;16.03;100.00;101021.97;20979760;28;20392;-59
2021/10/06 15:49:10;;;;;;;5.53;4.37;;;;;;;15.78;100.00;101017.56;20999625;28;20350;-62
2021/10/06 15:59:12;;;;;;;5.80;4.23;;;;;;;15.62;100.00;101032.28;20949913;28;20321;-61
2021/10/06 16:09:16;;;;;;;8.03;4.73;;;;;;;15.45;100.00;101037.06;20949757;28;20336;-61
2021/10/06 16:19:19;;;;;;;4.70;4.20;;;;;;;15.30;100.00;101043.53;20960249;28;20310;-60
2021/10/06 16:29:25;;;;;;;5.37;4.17;;;;;;;15.13;100.00;101058.19;20972555;28;20230;-59
2021/10/06 16:39:28;;;;;;;6.90;4.30;;;;;;;14.99;100.00;101066.38;20946955;28;20240;-60
2021/10/06 16:49:32;;;;;;;7.80;4.53;;;;;;;14.94;100.00;101073.06;20950084;28;20391;-59
2021/10/06 16:59:35;;;;;;;6.60;5.10;;;;;;;14.93;100.00;101077.56;20932222;28;20250;-65
2021/10/06 17:09:41;;;;;;;6.00;4.80;;;;;;;14.94;100.00;101086.50;20956830;28;20231;-58
2021/10/06 17:19:45;;;;;;;5.53;4.77;;;;;;;14.91;100.00;101092.06;20953822;28;20241;-57
2021/10/06 17:29:49;;;;;;;7.93;5.00;;;;;;;14.83;100.00;101094.44;20959784;28;20226;-58
2021/10/06 17:39:53;;;;;;;7.03;5.67;;;;;;;14.81;100.00;101112.50;20945268;28;20253;-59
2021/10/06 17:49:58;;;;;;;8.20;5.13;;;;;;;14.80;100.00;101124.22;20976583;27;20230;-58
2021/10/06 18:00:14;;;;;;;6.07;4.90;;;;;;;14.78;100.00;101117.13;20953290;28;20363;-58
2021/10/06 18:10:28;;;;;;;7.90;5.23;;;;;;;14.67;100.00;101127.75;20925952;28;20234;-60
2021/10/06 18:20:34;;;;;;;10.20;5.97;;;;;;;14.51;100.00;101139.63;20977074;22;20510;-61
2021/10/06 18:30:40;;;;;;;8.90;5.77;;;;;;;14.41;100.00;101144.75;20929121;28;20262;-60
2021/10/06 18:40:44;;;;;;;8.33;5.80;;;;;;;14.41;100.00;101161.72;20929370;28;20245;-59
2021/10/06 18:50:53;;;;;;;6.90;5.87;;;;;;;14.34;100.00;101159.53;20929323;28;20323;-58
2021/10/06 19:00:57;;;;;;;7.67;5.80;;;;;;;14.25;100.00;101165.53;20927925;28;20245;-64
2021/10/06 19:11:02;;;;;;;9.63;6.80;;;;;;;14.11;100.00;101166.41;20938339;28;20241;-62
2021/10/06 19:21:05;;;;;;;9.83;6.00;;;;;;;14.15;100.00;101185.84;20942404;28;20246;-61
2021/10/06 19:31:11;;;;;;;9.10;6.20;;;;;;;14.24;100.00;101190.66;20942694;28;20237;-62
2021/10/06 19:41:13;;;;;;;6.70;5.60;;;;;;;14.19;100.00;101198.13;20942152;28;20238;-58
2021/10/06 19:51:17;;;;;;;10.50;6.20;;;;;;;14.07;100.00;101216.75;20939650;28;20756;-58
2021/10/06 20:01:20;;;;;;;6.47;5.77;;;;;;;14.05;100.00;101218.66;20921753;28;20599;-59
2021/10/06 20:11:27;;;;;;;6.43;5.83;;;;;;;14.01;100.00;101227.00;20938453;28;20252;-63
2021/10/06 20:21:30;;;;;;;11.50;7.13;;;;;;;14.02;100.00;101224.22;20937540;28;20337;-60
2021/10/06 20:31:34;;;;;;;8.77;6.60;;;;;;;14.01;100.00;101227.88;20938507;28;20254;-59
2021/10/06 20:41:36;;;;;;;7.07;6.10;;;;;;;14.05;100.00;101229.41;20937357;28;20710;-58
2021/10/06 20:51:41;;;;;;;7.23;6.50;;;;;;;14.00;100.00;101228.84;20937302;28;20230;-59
2021/10/06 21:01:43;;;;;;;9.83;6.70;;;;;;;13.94;100.00;101226.53;20936510;28;21039;-58
2021/10/06 21:11:47;;;;;;;8.60;6.37;;;;;;;13.93;100.00;101235.56;20916617;28;20280;-59
2021/10/06 21:21:49;;;;;;;8.10;6.43;;;;;;;13.84;100.00;101236.16;20918997;28;20233;-59
2021/10/06 21:31:53;;;;;;;9.50;6.73;;;;;;;13.73;100.00;101254.75;20918019;28;20247;-65
2021/10/06 21:41:55;;;;;;;8.43;7.53;;;;;;;13.52;100.00;101264.13;20917429;28;20245;-60
2021/10/06 21:51:59;;;;;;;9.13;8.23;;;;;;;13.35;100.00;101275.88;20988073;28;20721;-59
2021/10/06 22:02:02;;;;;;;7.50;6.90;;;;;;;13.20;100.00;101266.91;20969986;28;20247;-59
2021/10/06 22:22:04;;;;;;;7.97;7.27;;;;;;;12.93;100.00;101276.56;21144157;27;20562;-61
2021/10/06 22:32:08;;;;;;;10.60;7.80;;;;;;;12.77;100.00;101278.44;21050712;28;20285;-62
2021/10/06 22:42:12;;;;;;;9.07;7.40;;;;;;;12.59;100.00;101281.19;21057890;28;20220;-61
2021/10/06 22:52:15;;;;;;;10.77;7.90;;;;;;;12.42;100.00;101300.06;21056833;28;20231;-61
2021/10/06 23:02:18;;;;;;;10.30;7.57;;;;;;;12.27;100.00;101301.78;21056061;28;20592;-62
2021/10/06 23:12:20;;;;;;;8.30;7.50;;;;;;;12.14;100.00;101305.19;21055236;28;20255;-60
2021/10/06 23:22:24;;;;;;;9.13;7.73;;;;;;;12.04;100.00;101306.66;21055001;28;20214;-61
2021/10/06 23:32:26;;;;;;;8.67;7.77;;;;;;;11.97;100.00;101307.94;21002788;28;20322;-60
2021/10/06 23:42:30;;;;;;;8.33;7.43;;;;;;;11.96;100.00;101323.09;20997524;28;20678;-61
2021/10/06 23:52:32;;;;;;;10.10;7.33;;;;;;;12.00;100.00;101331.84;20996567;28;20231;-61
